Time;durP1;ratioP1;P1;durP2;ratioP2;P2;SDS_P1;SDS_P2;PMS_P1;PMS_P2;Temp;Humidity;BMP_temperature;BMP_pressure;BME280_temperature;BME280_humidity;BME280_pressure;Samples;Min_cycle;Max_cycle;Signal;HPM_P1;HPM_P2
2022/01/25 00:10:41;;;;;;;46.57;20.17;;;;;;;;;;5011040;28;20200;-79
2022/01/25 00:27:13;;;;;;;55.27;20.73;;;;;;;;;;5012060;28;20231;-79
2022/01/25 00:30:00;;;;;;;54.53;21.37;;;;;;;;;;5011130;28;20776;-79
2022/01/25 00:32:27;;;;;;;54.47;22.23;;;;;;;;;;5012256;28;20208;-79
2022/01/25 00:34:54;;;;;;;57.83;22.23;;;;;;;;;;5012080;28;20288;-79
2022/01/25 00:37:23;;;;;;;61.57;22.60;;;;;;;;;;5011626;28;20749;-80
2022/01/25 00:39:51;;;;;;;70.10;22.97;;;;;;;;;;5011617;28;20204;-79
2022/01/25 00:42:18;;;;;;;58.90;22.63;;;;;;;;;;5010751;28;20217;-79
2022/01/25 00:44:48;;;;;;;65.47;22.87;;;;;;;;;;5010641;28;20268;-80
2022/01/25 00:47:16;;;;;;;56.90;20.60;;;;;;;;;;5010825;28;20774;-79
2022/01/25 00:49:51;;;;;;;59.07;21.30;;;;;;;;;;5011366;28;20204;-79
2022/01/25 00:52:22;;;;;;;59.87;20.43;;;;;;;;;;5011435;28;20208;-79
2022/01/25 00:54:53;;;;;;;53.47;21.07;;;;;;;;;;5010942;28;20581;-79
2022/01/25 00:57:20;;;;;;;51.37;20.53;;;;;;;;;;5011596;28;20307;-80
2022/01/25 00:59:48;;;;;;;64.90;26.80;;;;;;;;;;5011769;28;20232;-79
2022/01/25 01:02:16;;;;;;;52.53;21.50;;;;;;;;;;5010669;28;20730;-79
2022/01/25 01:04:43;;;;;;;58.67;25.33;;;;;;;;;;5010809;28;20227;-79
2022/01/25 01:07:13;;;;;;;58.53;23.70;;;;;;;;;;5010352;28;20593;-79
2022/01/25 01:09:43;;;;;;;60.30;21.53;;;;;;;;;;5011298;28;20572;-79
2022/01/25 01:12:17;;;;;;;47.63;19.67;;;;;;;;;;5010892;28;20255;-79
2022/01/25 01:29:08;;;;;;;49.07;20.40;;;;;;;;;;5011314;28;20232;-79
2022/01/25 01:31:51;;;;;;;59.13;21.43;;;;;;;;;;5011686;28;20205;-79
2022/01/25 01:37:27;;;;;;;55.13;21.17;;;;;;;;;;5010629;28;20309;-79
2022/01/25 01:40:16;;;;;;;61.13;24.43;;;;;;;;;;5011537;28;20202;-80
2022/01/25 01:45:40;;;;;;;51.70;21.27;;;;;;;;;;4993112;28;20251;-80
2022/01/25 01:48:11;;;;;;;58.47;21.77;;;;;;;;;;5014170;28;20252;-80
2022/01/25 01:50:39;;;;;;;58.27;24.23;;;;;;;;;;5014933;28;20283;-79
2022/01/25 01:53:07;;;;;;;46.60;20.47;;;;;;;;;;5014894;28;20263;-80
2022/01/25 01:55:35;;;;;;;51.00;19.20;;;;;;;;;;5014463;28;20224;-79
2022/01/25 01:58:03;;;;;;;43.97;18.70;;;;;;;;;;5013821;28;20280;-79
2022/01/25 02:00:32;;;;;;;54.70;19.37;;;;;;;;;;5014013;28;20292;-79
2022/01/25 02:03:01;;;;;;;50.47;19.60;;;;;;;;;;5014058;28;20297;-79
2022/01/25 02:05:28;;;;;;;43.10;17.93;;;;;;;;;;5013398;28;20198;-79
2022/01/25 02:07:55;;;;;;;43.43;18.50;;;;;;;;;;5014632;28;20252;-79
2022/01/25 02:10:22;;;;;;;47.90;18.67;;;;;;;;;;5014060;28;20240;-79
2022/01/25 02:12:51;;;;;;;62.67;18.97;;;;;;;;;;5014425;28;20240;-80
2022/01/25 02:15:19;;;;;;;60.00;19.70;;;;;;;;;;5013493;28;20284;-79
2022/01/25 02:23:32;;;;;;;56.83;19.73;;;;;;;;;;5002727;28;20219;-79
2022/01/25 02:26:00;;;;;;;55.53;20.27;;;;;;;;;;5009406;28;20192;-81
2022/01/25 02:28:29;;;;;;;49.47;17.90;;;;;;;;;;5011732;28;20723;-79
2022/01/25 02:30:57;;;;;;;49.93;17.87;;;;;;;;;;5009092;28;20755;-80
2022/01/25 02:33:24;;;;;;;60.60;19.27;;;;;;;;;;5012037;28;20243;-80
2022/01/25 02:35:53;;;;;;;49.27;19.33;;;;;;;;;;5010466;28;20205;-79
2022/01/25 02:38:25;;;;;;;54.07;18.60;;;;;;;;;;5011519;28;20295;-80
2022/01/25 02:40:53;;;;;;;58.80;19.40;;;;;;;;;;4996906;28;20296;-80
2022/01/25 02:43:21;;;;;;;51.53;19.23;;;;;;;;;;5001346;28;20252;-80
2022/01/25 02:46:03;;;;;;;42.03;16.43;;;;;;;;;;4982730;28;20202;-80
2022/01/25 02:48:30;;;;;;;44.07;16.83;;;;;;;;;;4991994;28;20221;-79
2022/01/25 02:50:59;;;;;;;49.30;16.93;;;;;;;;;;4996021;28;20214;-79
2022/01/25 02:53:26;;;;;;;42.70;17.60;;;;;;;;;;5013211;28;20203;-81
2022/01/25 02:55:54;;;;;;;49.03;17.50;;;;;;;;;;5013070;28;20773;-81
2022/01/25 02:58:21;;;;;;;45.57;18.00;;;;;;;;;;5013730;28;20236;-80
2022/01/25 03:00:48;;;;;;;51.37;17.43;;;;;;;;;;5012425;28;20288;-81
2022/01/25 03:03:16;;;;;;;43.60;17.40;;;;;;;;;;5012929;28;20235;-81
2022/01/25 03:05:44;;;;;;;50.63;18.93;;;;;;;;;;5013013;28;20310;-81
2022/01/25 03:08:14;;;;;;;56.00;17.67;;;;;;;;;;5013534;28;20226;-80
2022/01/25 03:10:43;;;;;;;52.63;17.87;;;;;;;;;;5013818;28;20204;-81
2022/01/25 03:13:15;;;;;;;43.83;17.17;;;;;;;;;;5012934;28;20236;-81
2022/01/25 03:15:57;;;;;;;45.67;18.03;;;;;;;;;;5013512;28;20205;-80
2022/01/25 03:18:53;;;;;;;53.47;18.90;;;;;;;;;;5013135;28;20295;-81
2022/01/25 03:21:39;;;;;;;47.87;18.33;;;;;;;;;;5012982;28;20213;-79
2022/01/25 03:24:09;;;;;;;47.83;18.27;;;;;;;;;;5012347;28;20687;-81
2022/01/25 03:26:36;;;;;;;48.80;17.53;;;;;;;;;;5013115;28;20201;-81
2022/01/25 03:29:05;;;;;;;53.30;18.60;;;;;;;;;;5012419;28;20232;-81
2022/01/25 03:31:32;;;;;;;53.30;17.77;;;;;;;;;;5012552;28;20207;-81
2022/01/25 03:33:59;;;;;;;55.80;17.63;;;;;;;;;;5012622;28;20221;-80
2022/01/25 03:36:27;;;;;;;52.47;18.60;;;;;;;;;;5012756;28;20284;-80
2022/01/25 03:38:54;;;;;;;69.70;16.47;;;;;;;;;;5012814;28;20295;-81
2022/01/25 03:41:23;;;;;;;48.77;16.33;;;;;;;;;;5012092;28;20644;-80
2022/01/25 03:43:54;;;;;;;42.87;15.03;;;;;;;;;;5012507;28;20229;-81
2022/01/25 03:46:28;;;;;;;39.77;15.53;;;;;;;;;;5011840;28;20205;-80
2022/01/25 03:51:40;;;;;;;42.43;15.67;;;;;;;;;;5012231;28;20282;-81
2022/01/25 03:54:08;;;;;;;52.67;15.57;;;;;;;;;;5012371;28;20293;-81
2022/01/25 03:56:39;;;;;;;39.57;15.30;;;;;;;;;;5011930;28;20597;-81
2022/01/25 03:59:06;;;;;;;39.90;15.63;;;;;;;;;;5012498;28;20208;-81
2022/01/25 04:01:34;;;;;;;40.17;14.70;;;;;;;;;;5011608;28;20199;-81
2022/01/25 04:04:04;;;;;;;38.17;15.23;;;;;;;;;;5012066;28;20291;-81
2022/01/25 04:06:33;;;;;;;41.43;15.37;;;;;;;;;;5012066;28;20228;-80
2022/01/25 04:09:01;;;;;;;39.53;15.90;;;;;;;;;;5011442;28;20224;-81
2022/01/25 04:11:28;;;;;;;36.07;15.17;;;;;;;;;;5012110;28;20240;-80
2022/01/25 04:13:58;;;;;;;36.20;14.77;;;;;;;;;;5011863;28;20233;-81
2022/01/25 04:16:29;;;;;;;44.20;15.33;;;;;;;;;;5010715;28;20223;-81
2022/01/25 04:19:04;;;;;;;39.63;15.30;;;;;;;;;;5012013;28;20204;-80
2022/01/25 04:24:40;;;;;;;38.70;14.13;;;;;;;;;;5011692;28;20328;-81
2022/01/25 04:25:03;;;;;;;47.73;14.43;;;;;;;;;;5011821;28;20235;-81
2022/01/25 04:27:31;;;;;;;34.70;14.00;;;;;;;;;;5012044;28;20215;-81
2022/01/25 04:29:59;;;;;;;37.43;15.23;;;;;;;;;;5012091;28;20295;-81
2022/01/25 04:32:33;;;;;;;35.93;13.57;;;;;;;;;;5011872;28;20292;-80
2022/01/25 04:35:14;;;;;;;40.27;14.83;;;;;;;;;;5011428;28;20200;-81
2022/01/25 04:48:58;;;;;;;47.70;13.77;;;;;;;;;;5010654;28;20227;-81
2022/01/25 04:54:32;;;;;;;51.70;13.80;;;;;;;;;;4993331;28;20215;-80
2022/01/25 04:57:12;;;;;;;29.27;13.00;;;;;;;;;;5011593;28;20755;-80
2022/01/25 04:59:45;;;;;;;35.67;12.90;;;;;;;;;;5011209;28;20214;-78
2022/01/25 05:02:18;;;;;;;59.13;14.33;;;;;;;;;;5011598;28;20204;-81
2022/01/25 05:04:50;;;;;;;37.63;12.57;;;;;;;;;;5011632;28;20389;-81
2022/01/25 05:07:29;;;;;;;39.03;12.77;;;;;;;;;;5011542;28;20216;-80
2022/01/25 05:09:57;;;;;;;34.30;12.37;;;;;;;;;;5011475;28;20210;-80
2022/01/25 05:12:36;;;;;;;36.10;13.60;;;;;;;;;;5011705;28;20211;-80
2022/01/25 05:15:19;;;;;;;33.33;13.63;;;;;;;;;;5010916;28;20675;-81
2022/01/25 05:18:00;;;;;;;35.43;12.53;;;;;;;;;;5011539;28;20240;-80
2022/01/25 05:23:13;;;;;;;37.77;15.03;;;;;;;;;;5015198;28;20594;-81
2022/01/25 05:25:40;;;;;;;35.73;14.10;;;;;;;;;;5014872;28;20298;-80
2022/01/25 05:28:07;;;;;;;49.53;13.67;;;;;;;;;;5014659;28;20317;-80
2022/01/25 05:30:34;;;;;;;59.20;14.13;;;;;;;;;;5014914;28;20210;-80
2022/01/25 05:33:03;;;;;;;56.73;13.17;;;;;;;;;;5015304;28;20233;-80
2022/01/25 05:35:30;;;;;;;54.33;13.87;;;;;;;;;;5014851;28;20298;-80
2022/01/25 05:37:58;;;;;;;54.33;13.67;;;;;;;;;;5015352;28;20239;-86
2022/01/25 05:40:40;;;;;;;46.37;13.57;;;;;;;;;;5014544;28;20203;-86
2022/01/25 05:45:57;;;;;;;32.13;13.10;;;;;;;;;;4992519;28;20202;-86
2022/01/25 05:48:26;;;;;;;30.40;13.10;;;;;;;;;;4992058;28;20312;-86
2022/01/25 05:50:54;;;;;;;37.87;13.53;;;;;;;;;;4993157;28;20294;-86
2022/01/25 05:53:22;;;;;;;31.40;13.10;;;;;;;;;;4992457;28;20802;-86
2022/01/25 05:55:49;;;;;;;33.13;13.07;;;;;;;;;;4992307;28;20286;-86
2022/01/25 05:58:17;;;;;;;29.63;12.60;;;;;;;;;;4976500;28;20204;-86
2022/01/25 06:00:44;;;;;;;38.90;13.27;;;;;;;;;;4991919;28;20426;-86
2022/01/25 06:03:11;;;;;;;32.47;13.70;;;;;;;;;;4992816;28;20298;-86
2022/01/25 06:05:40;;;;;;;34.13;13.70;;;;;;;;;;4993078;28;20850;-87
2022/01/25 06:08:07;;;;;;;31.57;13.43;;;;;;;;;;4992899;28;20409;-87
2022/01/25 06:10:35;;;;;;;27.60;12.50;;;;;;;;;;4993782;28;20230;-85
2022/01/25 06:13:02;;;;;;;31.60;13.23;;;;;;;;;;4991660;28;20208;-87
2022/01/25 06:15:30;;;;;;;30.47;13.53;;;;;;;;;;4993042;28;20229;-87
2022/01/25 06:17:57;;;;;;;27.47;12.47;;;;;;;;;;4992301;28;20304;-88
2022/01/25 06:20:24;;;;;;;39.27;12.80;;;;;;;;;;4993216;28;20210;-87
2022/01/25 06:22:53;;;;;;;34.07;13.20;;;;;;;;;;5000774;28;20282;-88
2022/01/25 06:25:20;;;;;;;29.80;13.57;;;;;;;;;;5015830;28;20666;-89
2022/01/25 06:27:48;;;;;;;30.00;12.77;;;;;;;;;;5015783;28;20267;-90
2022/01/25 06:30:17;;;;;;;30.20;12.90;;;;;;;;;;5013926;28;20553;-88
2022/01/25 06:32:45;;;;;;;38.30;12.77;;;;;;;;;;5014165;28;20204;-88
2022/01/25 06:35:12;;;;;;;32.57;12.57;;;;;;;;;;5014683;28;20676;-90
2022/01/25 06:37:40;;;;;;;56.80;14.17;;;;;;;;;;5015286;28;20232;-89
2022/01/25 06:40:09;;;;;;;47.67;12.97;;;;;;;;;;5014114;28;20667;-90
2022/01/25 06:42:36;;;;;;;513.23;338.87;;;;;;;;;;5013243;28;20313;-89
2022/01/25 06:45:08;;;;;;;64.37;26.13;;;;;;;;;;5010723;28;20258;-85
2022/01/25 06:47:35;;;;;;;30.53;15.27;;;;;;;;;;5010415;28;20220;-88
2022/01/25 06:50:03;;;;;;;40.10;13.13;;;;;;;;;;5011620;28;20220;-86
2022/01/25 06:52:30;;;;;;;35.53;12.70;;;;;;;;;;5013551;28;20250;-86
2022/01/25 06:54:57;;;;;;;36.50;13.70;;;;;;;;;;5012017;28;20236;-86
2022/01/25 06:57:26;;;;;;;46.33;12.87;;;;;;;;;;5012155;28;20243;-86
2022/01/25 06:59:53;;;;;;;28.40;12.47;;;;;;;;;;5012440;28;20289;-85
2022/01/25 07:02:20;;;;;;;44.83;12.60;;;;;;;;;;5012032;28;20218;-85
2022/01/25 07:04:48;;;;;;;32.70;12.43;;;;;;;;;;5009994;28;20203;-83
2022/01/25 07:07:15;;;;;;;28.90;12.23;;;;;;;;;;5010098;28;20199;-84
2022/01/25 07:09:42;;;;;;;32.30;12.57;;;;;;;;;;5012157;28;20230;-84
2022/01/25 07:12:10;;;;;;;32.47;12.30;;;;;;;;;;5011369;28;20290;-85
2022/01/25 07:14:38;;;;;;;52.77;11.87;;;;;;;;;;5009670;28;20233;-85
2022/01/25 07:17:06;;;;;;;44.47;12.10;;;;;;;;;;5009643;28;20240;-85
2022/01/25 07:19:33;;;;;;;32.70;11.90;;;;;;;;;;5011597;28;20291;-84
2022/01/25 07:22:00;;;;;;;39.70;13.63;;;;;;;;;;5010956;28;20239;-86
2022/01/25 07:24:28;;;;;;;32.77;14.63;;;;;;;;;;5011215;28;20298;-86
2022/01/25 07:26:55;;;;;;;30.37;12.60;;;;;;;;;;5011635;28;20196;-86
2022/01/25 07:29:23;;;;;;;26.87;12.30;;;;;;;;;;5011275;28;20237;-87
2022/01/25 07:31:52;;;;;;;35.53;13.40;;;;;;;;;;5012154;28;20237;-87
2022/01/25 07:34:19;;;;;;;31.70;13.93;;;;;;;;;;5012641;28;20236;-85
2022/01/25 07:36:46;;;;;;;33.90;13.17;;;;;;;;;;5012253;28;20668;-84
2022/01/25 07:39:14;;;;;;;36.10;13.40;;;;;;;;;;5011886;28;20283;-85
2022/01/25 07:41:41;;;;;;;31.87;13.57;;;;;;;;;;5011916;28;20234;-84
2022/01/25 07:44:08;;;;;;;32.30;13.13;;;;;;;;;;5011736;28;20705;-85
2022/01/25 07:46:35;;;;;;;36.73;13.13;;;;;;;;;;5011732;28;20285;-84
2022/01/25 07:49:05;;;;;;;44.37;13.83;;;;;;;;;;5010712;28;20222;-84
2022/01/25 07:51:32;;;;;;;44.50;12.97;;;;;;;;;;5012350;28;20590;-85
2022/01/25 07:54:00;;;;;;;27.53;12.10;;;;;;;;;;5011837;28;20664;-85
2022/01/25 07:56:28;;;;;;;33.53;11.93;;;;;;;;;;5016098;28;20735;-85
2022/01/25 07:58:55;;;;;;;31.23;12.70;;;;;;;;;;5011679;28;21494;-85
2022/01/25 08:01:24;;;;;;;39.40;12.90;;;;;;;;;;5011967;28;20211;-85
2022/01/25 08:03:51;;;;;;;35.23;12.80;;;;;;;;;;5011166;28;20626;-85
2022/01/25 08:06:21;;;;;;;40.33;11.60;;;;;;;;;;5010037;28;20691;-85
2022/01/25 08:08:48;;;;;;;38.23;13.17;;;;;;;;;;5011487;28;20568;-85
2022/01/25 08:11:15;;;;;;;41.60;12.70;;;;;;;;;;5013826;28;20295;-85
2022/01/25 08:13:47;;;;;;;31.17;12.90;;;;;;;;;;5011081;28;20683;-84
2022/01/25 08:16:15;;;;;;;29.67;12.30;;;;;;;;;;5011261;28;20268;-85
2022/01/25 08:18:42;;;;;;;43.90;12.87;;;;;;;;;;5011549;28;20259;-85
2022/01/25 08:21:09;;;;;;;33.13;12.67;;;;;;;;;;5020171;28;20252;-85
2022/01/25 08:23:38;;;;;;;40.03;12.63;;;;;;;;;;5015909;28;20207;-85
2022/01/25 08:26:05;;;;;;;39.00;14.27;;;;;;;;;;5012543;28;20237;-85
2022/01/25 08:28:32;;;;;;;36.77;13.37;;;;;;;;;;5012800;28;20203;-85
2022/01/25 08:31:00;;;;;;;32.87;13.47;;;;;;;;;;5011483;28;20207;-84
2022/01/25 08:33:27;;;;;;;36.33;12.57;;;;;;;;;;5011734;28;20240;-85
2022/01/25 08:35:54;;;;;;;44.27;13.70;;;;;;;;;;5011795;28;20235;-85
2022/01/25 08:38:22;;;;;;;29.87;12.30;;;;;;;;;;5011190;28;20216;-85
2022/01/25 08:40:50;;;;;;;35.37;13.87;;;;;;;;;;5011554;28;20239;-85
2022/01/25 08:43:18;;;;;;;57.30;14.50;;;;;;;;;;5010799;28;20301;-85
2022/01/25 08:45:45;;;;;;;45.07;13.40;;;;;;;;;;5010468;28;20289;-85
2022/01/25 08:48:12;;;;;;;40.03;13.63;;;;;;;;;;5016879;28;20231;-85
2022/01/25 08:50:40;;;;;;;33.60;13.73;;;;;;;;;;5013710;28;20309;-85
2022/01/25 08:53:07;;;;;;;36.80;13.30;;;;;;;;;;5013555;28;20645;-85
2022/01/25 08:55:34;;;;;;;64.60;13.37;;;;;;;;;;5013020;28;20230;-85
2022/01/25 08:58:03;;;;;;;35.90;13.40;;;;;;;;;;5019001;28;20282;-85
2022/01/25 09:00:31;;;;;;;32.73;14.07;;;;;;;;;;5015523;28;20279;-85
2022/01/25 09:03:00;;;;;;;47.27;13.77;;;;;;;;;;5014073;28;20214;-85
2022/01/25 09:05:27;;;;;;;48.60;13.70;;;;;;;;;;5014841;28;20252;-84
2022/01/25 09:07:56;;;;;;;69.50;12.47;;;;;;;;;;5015186;28;20204;-83
2022/01/25 09:10:24;;;;;;;33.13;12.10;;;;;;;;;;5018501;28;20226;-84
2022/01/25 09:12:51;;;;;;;49.73;13.13;;;;;;;;;;5015260;28;20673;-84
2022/01/25 09:15:20;;;;;;;39.50;13.27;;;;;;;;;;5013706;28;20291;-82
2022/01/25 09:17:48;;;;;;;40.00;12.43;;;;;;;;;;5015198;28;20203;-85
2022/01/25 09:20:16;;;;;;;50.60;13.53;;;;;;;;;;5012807;28;20205;-83
2022/01/25 09:22:43;;;;;;;32.17;12.17;;;;;;;;;;5013400;28;20218;-83
2022/01/25 09:25:13;;;;;;;31.30;11.83;;;;;;;;;;5013442;28;20313;-83
2022/01/25 09:27:40;;;;;;;26.67;10.40;;;;;;;;;;5012990;28;20209;-84
2022/01/25 09:30:07;;;;;;;25.30;10.07;;;;;;;;;;5012745;28;20266;-83
2022/01/25 09:32:36;;;;;;;40.87;10.33;;;;;;;;;;5013754;28;20196;-83
2022/01/25 09:35:04;;;;;;;27.07;11.00;;;;;;;;;;5013249;28;20735;-82
2022/01/25 09:37:31;;;;;;;38.67;11.07;;;;;;;;;;5015749;28;20289;-82
2022/01/25 09:39:58;;;;;;;32.30;10.47;;;;;;;;;;5013832;28;20234;-87
2022/01/25 09:42:30;;;;;;;30.13;10.80;;;;;;;;;;5012287;28;20238;-87
2022/01/25 09:45:00;;;;;;;39.63;11.47;;;;;;;;;;5011711;28;20231;-88
2022/01/25 09:47:29;;;;;;;37.60;11.63;;;;;;;;;;5015891;28;20220;-88
2022/01/25 09:49:58;;;;;;;33.07;12.97;;;;;;;;;;5013203;28;20226;-87
2022/01/25 09:52:27;;;;;;;32.63;12.40;;;;;;;;;;5013511;28;20205;-88
2022/01/25 09:54:55;;;;;;;47.07;25.33;;;;;;;;;;5014617;28;20549;-87
2022/01/25 09:57:23;;;;;;;28.53;12.47;;;;;;;;;;5017157;28;20350;-88
2022/01/25 09:59:51;;;;;;;24.27;12.07;;;;;;;;;;5013052;28;20204;-88
2022/01/25 10:02:34;;;;;;;32.33;12.47;;;;;;;;;;5017886;28;20299;-88
2022/01/25 10:05:16;;;;;;;26.20;11.50;;;;;;;;;;5011763;28;20290;-87
2022/01/25 10:07:43;;;;;;;28.90;11.00;;;;;;;;;;5011939;28;20208;-88
2022/01/25 10:10:11;;;;;;;28.17;11.30;;;;;;;;;;5019106;28;20234;-88
2022/01/25 10:12:38;;;;;;;23.43;10.67;;;;;;;;;;5013496;28;20203;-88
2022/01/25 10:15:11;;;;;;;24.30;10.97;;;;;;;;;;5012992;28;20211;-88
2022/01/25 10:17:41;;;;;;;25.87;10.37;;;;;;;;;;5012504;28;20209;-89
2022/01/25 10:20:25;;;;;;;23.53;10.90;;;;;;;;;;5013825;28;20618;-88
2022/01/25 10:22:52;;;;;;;21.97;10.57;;;;;;;;;;5012562;28;21028;-88
2022/01/25 10:25:30;;;;;;;25.33;10.80;;;;;;;;;;5013339;28;20211;-89
2022/01/25 10:28:02;;;;;;;23.40;10.53;;;;;;;;;;5012126;28;20299;-88
2022/01/25 10:30:31;;;;;;;26.30;11.67;;;;;;;;;;5015193;28;20229;-90
2022/01/25 10:33:03;;;;;;;25.57;11.30;;;;;;;;;;5014112;28;20205;-88
2022/01/25 10:35:39;;;;;;;29.10;11.07;;;;;;;;;;5009205;28;20205;-86
2022/01/25 10:38:18;;;;;;;24.90;11.43;;;;;;;;;;5012211;28;20208;-87
2022/01/25 10:40:45;;;;;;;29.30;11.50;;;;;;;;;;5013489;28;20200;-89
2022/01/25 10:43:15;;;;;;;21.93;10.73;;;;;;;;;;5012625;28;20725;-88
2022/01/25 10:45:42;;;;;;;28.47;11.83;;;;;;;;;;5013206;28;20309;-88
2022/01/25 10:48:10;;;;;;;25.53;11.80;;;;;;;;;;5014571;28;20223;-88
2022/01/25 10:50:42;;;;;;;27.93;13.47;;;;;;;;;;5012700;28;20311;-89
2022/01/25 10:53:10;;;;;;;26.33;13.17;;;;;;;;;;5013618;28;20264;-89
2022/01/25 10:55:38;;;;;;;23.20;11.20;;;;;;;;;;5010830;28;20263;-88
2022/01/25 10:58:07;;;;;;;21.53;11.53;;;;;;;;;;5011917;28;20700;-89
2022/01/25 11:00:35;;;;;;;25.43;11.60;;;;;;;;;;5012674;28;20295;-89
2022/01/25 11:03:03;;;;;;;25.50;11.50;;;;;;;;;;5012051;28;20228;-90
2022/01/25 11:05:32;;;;;;;26.87;13.10;;;;;;;;;;5012501;28;20236;-88
2022/01/25 11:08:10;;;;;;;31.63;14.53;;;;;;;;;;5017087;28;20197;-87
2022/01/25 11:10:38;;;;;;;32.80;14.87;;;;;;;;;;5011694;28;20300;-87
2022/01/25 11:13:21;;;;;;;27.53;13.93;;;;;;;;;;5011698;28;20205;-89
2022/01/25 11:15:49;;;;;;;28.00;14.23;;;;;;;;;;5011732;28;20289;-87
2022/01/25 11:18:16;;;;;;;31.13;15.47;;;;;;;;;;5012600;28;20216;-90
2022/01/25 11:20:44;;;;;;;29.37;14.53;;;;;;;;;;5013788;28;20200;-88
2022/01/25 11:23:13;;;;;;;28.63;14.47;;;;;;;;;;5015160;28;20201;-83
2022/01/25 11:25:45;;;;;;;27.37;12.60;;;;;;;;;;5017187;28;20232;-88
2022/01/25 11:30:55;;;;;;;27.43;13.57;;;;;;;;;;5015161;28;20324;-91
2022/01/25 11:33:22;;;;;;;33.57;15.60;;;;;;;;;;5015278;28;20235;-91
2022/01/25 11:35:50;;;;;;;33.43;15.77;;;;;;;;;;5014113;28;20201;-91
2022/01/25 11:38:28;;;;;;;33.53;15.70;;;;;;;;;;5012999;28;20201;-91
2022/01/25 11:40:56;;;;;;;34.07;15.20;;;;;;;;;;5012645;28;20197;-86
2022/01/25 11:43:23;;;;;;;29.10;14.97;;;;;;;;;;5012247;28;20363;-91
2022/01/25 11:45:51;;;;;;;32.50;16.10;;;;;;;;;;5013134;28;20243;-91
2022/01/25 11:48:20;;;;;;;27.17;14.40;;;;;;;;;;5013698;28;20220;-91
2022/01/25 11:50:47;;;;;;;29.77;15.83;;;;;;;;;;5018146;28;20655;-92
2022/01/25 11:53:16;;;;;;;31.10;14.63;;;;;;;;;;5017381;28;20300;-91
2022/01/25 11:55:47;;;;;;;26.80;14.70;;;;;;;;;;5015853;28;20201;-81
2022/01/25 11:58:16;;;;;;;33.43;14.37;;;;;;;;;;5025039;28;20209;-89
2022/01/25 12:00:44;;;;;;;27.70;13.37;;;;;;;;;;5014552;28;20268;-90
2022/01/25 12:03:22;;;;;;;24.83;12.93;;;;;;;;;;5015399;28;20210;-91
2022/01/25 12:06:09;;;;;;;27.17;13.50;;;;;;;;;;5014934;28;20279;-88
2022/01/25 12:08:50;;;;;;;26.13;14.00;;;;;;;;;;5015656;28;20625;-89
2022/01/25 12:11:36;;;;;;;24.37;13.27;;;;;;;;;;5011360;28;20218;-93
2022/01/25 12:14:14;;;;;;;28.63;15.00;;;;;;;;;;5012701;28;20203;-93
2022/01/25 12:16:44;;;;;;;27.17;14.23;;;;;;;;;;5009898;28;20229;-92
2022/01/25 12:19:13;;;;;;;27.40;14.07;;;;;;;;;;5012352;28;20213;-92
2022/01/25 12:21:59;;;;;;;25.63;14.20;;;;;;;;;;5012489;28;20257;-93
2022/01/25 12:24:30;;;;;;;27.30;13.40;;;;;;;;;;5019899;28;20601;-91
2022/01/25 12:27:04;;;;;;;24.07;12.87;;;;;;;;;;5012598;28;20218;-92
2022/01/25 12:29:35;;;;;;;27.53;14.37;;;;;;;;;;5013134;28;20276;-93
2022/01/25 12:32:20;;;;;;;27.00;14.63;;;;;;;;;;5008036;28;20237;-90
2022/01/25 12:35:01;;;;;;;33.03;15.87;;;;;;;;;;5022640;28;20230;-92
2022/01/25 12:37:53;;;;;;;30.10;15.37;;;;;;;;;;5012058;28;20209;-92
2022/01/25 12:40:29;;;;;;;26.80;13.97;;;;;;;;;;5009481;28;20201;-92
2022/01/25 12:43:02;;;;;;;24.70;12.57;;;;;;;;;;5012389;28;20636;-94
2022/01/25 12:45:36;;;;;;;25.80;13.07;;;;;;;;;;5015288;28;20293;-91
2022/01/25 12:48:05;;;;;;;28.43;14.67;;;;;;;;;;5012321;28;20230;-92
2022/01/25 12:50:34;;;;;;;24.80;13.57;;;;;;;;;;5016543;28;20612;-92
2022/01/25 12:53:05;;;;;;;24.63;14.20;;;;;;;;;;5014673;28;20211;-92
2022/01/25 12:55:35;;;;;;;24.60;13.30;;;;;;;;;;5013221;28;20288;-92
2022/01/25 12:58:10;;;;;;;25.07;13.73;;;;;;;;;;5008307;28;20406;-92
2022/01/25 13:00:40;;;;;;;24.83;13.27;;;;;;;;;;5015526;28;20219;-91
2022/01/25 13:03:15;;;;;;;23.40;13.60;;;;;;;;;;5012784;28;20669;-91
2022/01/25 13:05:44;;;;;;;25.50;13.37;;;;;;;;;;5018802;28;20209;-92
2022/01/25 13:08:18;;;;;;;26.27;13.67;;;;;;;;;;5013193;28;20196;-92
2022/01/25 13:10:46;;;;;;;24.00;13.73;;;;;;;;;;5010839;28;20215;-92
2022/01/25 13:13:29;;;;;;;24.47;13.10;;;;;;;;;;5012265;28;20208;-93
2022/01/25 13:15:59;;;;;;;29.93;14.43;;;;;;;;;;5012313;28;20234;-93
2022/01/25 13:18:32;;;;;;;26.67;14.47;;;;;;;;;;5014216;28;20298;-94
2022/01/25 13:21:04;;;;;;;28.40;14.23;;;;;;;;;;5011478;28;20197;-90
2022/01/25 13:23:32;;;;;;;32.17;15.10;;;;;;;;;;5009453;28;20277;-91
2022/01/25 13:26:09;;;;;;;28.63;17.20;;;;;;;;;;5012839;28;20213;-91
2022/01/25 13:28:52;;;;;;;26.90;14.80;;;;;;;;;;5007466;28;20292;-91
2022/01/25 13:31:20;;;;;;;27.87;14.77;;;;;;;;;;5011305;28;20222;-91
2022/01/25 13:33:48;;;;;;;31.53;14.20;;;;;;;;;;5017706;28;20209;-92
2022/01/25 13:36:20;;;;;;;28.87;15.60;;;;;;;;;;5015766;28;20203;-91
2022/01/25 13:38:48;;;;;;;28.10;15.07;;;;;;;;;;5020584;28;20222;-91
2022/01/25 13:41:21;;;;;;;28.97;15.03;;;;;;;;;;5017957;28;20264;-92
2022/01/25 13:46:37;;;;;;;26.30;15.27;;;;;;;;;;5018639;28;20219;-92
2022/01/25 13:49:05;;;;;;;26.63;14.93;;;;;;;;;;5020433;28;20305;-92
2022/01/25 13:51:46;;;;;;;30.13;15.03;;;;;;;;;;5018801;28;20226;-92
2022/01/25 13:54:23;;;;;;;28.53;14.60;;;;;;;;;;5019256;28;20204;-91
2022/01/25 13:56:52;;;;;;;35.20;14.27;;;;;;;;;;5021176;28;20214;-92
2022/01/25 13:59:34;;;;;;;27.77;15.27;;;;;;;;;;5022327;28;20260;-92
2022/01/25 14:02:07;;;;;;;26.87;14.63;;;;;;;;;;5023428;28;20198;-90
2022/01/25 14:04:38;;;;;;;33.77;17.10;;;;;;;;;;5013087;28;20298;-90
2022/01/25 14:07:06;;;;;;;74.20;39.00;;;;;;;;;;5014016;28;20726;-90
2022/01/25 14:09:36;;;;;;;40.37;19.60;;;;;;;;;;5013328;28;20207;-91
2022/01/25 14:26:02;;;;;;;26.90;14.60;;;;;;;;;;5009924;28;20208;-90
2022/01/25 14:28:32;;;;;;;31.07;15.03;;;;;;;;;;5013778;28;20267;-90
2022/01/25 14:31:01;;;;;;;32.70;16.80;;;;;;;;;;5013578;28;20227;-90
2022/01/25 14:33:32;;;;;;;29.47;17.23;;;;;;;;;;5014279;28;20209;-91
2022/01/25 14:36:00;;;;;;;28.57;14.33;;;;;;;;;;5013919;28;20206;-92
2022/01/25 14:38:29;;;;;;;33.50;18.83;;;;;;;;;;5015270;28;20212;-92
2022/01/25 14:43:58;;;;;;;27.30;12.93;;;;;;;;;;5005608;28;20705;-92
2022/01/25 14:46:29;;;;;;;28.60;14.37;;;;;;;;;;5014872;28;20235;-90
2022/01/25 14:49:03;;;;;;;30.50;13.43;;;;;;;;;;5013358;28;20215;-90
2022/01/25 14:51:44;;;;;;;24.60;13.57;;;;;;;;;;5014423;28;20241;-92
2022/01/25 14:54:21;;;;;;;27.20;13.47;;;;;;;;;;5012278;28;20193;-90
2022/01/25 14:56:52;;;;;;;27.37;13.77;;;;;;;;;;5014403;28;20638;-92
2022/01/25 14:59:27;;;;;;;28.97;13.93;;;;;;;;;;5005807;28;20213;-89
2022/01/25 15:01:57;;;;;;;26.83;14.10;;;;;;;;;;5012158;28;20225;-87
2022/01/25 15:04:25;;;;;;;27.73;13.97;;;;;;;;;;5012339;28;20215;-88
2022/01/25 15:06:54;;;;;;;26.23;14.33;;;;;;;;;;5013091;28;20725;-91
2022/01/25 15:09:24;;;;;;;36.37;18.33;;;;;;;;;;5012600;28;20202;-90
2022/01/25 15:11:53;;;;;;;30.43;15.83;;;;;;;;;;5013077;28;20228;-89
2022/01/25 15:14:22;;;;;;;29.37;14.80;;;;;;;;;;5011921;28;20213;-89
2022/01/25 15:16:56;;;;;;;57.03;28.00;;;;;;;;;;5010823;28;20602;-90
2022/01/25 15:19:30;;;;;;;49.33;28.20;;;;;;;;;;5011824;28;20683;-88
2022/01/25 15:21:57;;;;;;;58.80;36.60;;;;;;;;;;5011761;28;20215;-88
2022/01/25 15:24:29;;;;;;;31.77;18.57;;;;;;;;;;5014375;28;20237;-90
2022/01/25 15:27:08;;;;;;;30.77;15.97;;;;;;;;;;5013693;28;20194;-91
2022/01/25 15:29:36;;;;;;;47.10;27.87;;;;;;;;;;5013933;28;20215;-91
2022/01/25 15:32:04;;;;;;;34.07;18.17;;;;;;;;;;5013313;28;20683;-90
2022/01/25 15:34:33;;;;;;;36.67;20.63;;;;;;;;;;5013703;28;20245;-83
2022/01/25 15:37:01;;;;;;;33.40;18.73;;;;;;;;;;5011850;28;20194;-82
2022/01/25 15:39:28;;;;;;;31.87;16.77;;;;;;;;;;5011994;28;20292;-81
2022/01/25 15:41:58;;;;;;;29.27;15.23;;;;;;;;;;5011635;28;20348;-86
2022/01/25 15:44:35;;;;;;;89.50;61.03;;;;;;;;;;5010258;28;20236;-89
2022/01/25 15:47:20;;;;;;;62.00;39.90;;;;;;;;;;5009301;28;20199;-89
2022/01/25 15:49:50;;;;;;;31.83;16.90;;;;;;;;;;5010864;28;20689;-89
2022/01/25 15:52:26;;;;;;;29.10;14.47;;;;;;;;;;5012523;28;20284;-90
2022/01/25 15:54:53;;;;;;;28.33;14.33;;;;;;;;;;5012357;28;20614;-90
2022/01/25 15:57:23;;;;;;;31.63;15.40;;;;;;;;;;5013523;28;20200;-89
2022/01/25 15:59:52;;;;;;;31.97;15.83;;;;;;;;;;5011169;28;21460;-89
2022/01/25 16:02:20;;;;;;;32.37;17.07;;;;;;;;;;5014188;28;20286;-91
2022/01/25 16:04:49;;;;;;;34.50;16.83;;;;;;;;;;5010131;28;20219;-89
2022/01/25 16:07:17;;;;;;;38.40;21.23;;;;;;;;;;5009167;28;20281;-89
2022/01/25 16:09:44;;;;;;;48.73;29.40;;;;;;;;;;5015008;28;20224;-88